Time;durP1;ratioP1;P1;durP2;ratioP2;P2;SDS_P1;SDS_P2;PMS_P1;PMS_P2;Temp;Humidity;BMP_temperature;BMP_pressure;BME280_temperature;BME280_humidity;BME280_pressure;Samples;Min_cycle;Max_cycle;Signal;HPM_P1;HPM_P2
2022/12/26 00:01:54;;;;;;;78.60;31.17;;;;;;;;;;5070955;28;20045;-73
2022/12/26 00:04:20;;;;;;;59.42;27.98;;;;;;;;;;5076964;28;20506;-74
2022/12/26 00:06:47;;;;;;;59.28;27.90;;;;;;;;;;5073538;28;20075;-74
2022/12/26 00:09:13;;;;;;;80.72;33.03;;;;;;;;;;5072658;28;20051;-73
2022/12/26 00:11:39;;;;;;;73.15;30.48;;;;;;;;;;5068998;28;20115;-73
2022/12/26 00:14:15;;;;;;;56.45;29.10;;;;;;;;;;5076981;28;20044;-74
2022/12/26 00:16:42;;;;;;;59.80;27.98;;;;;;;;;;5080361;28;20524;-74
2022/12/26 00:19:08;;;;;;;89.05;33.08;;;;;;;;;;5075615;28;20508;-73
2022/12/26 00:21:35;;;;;;;73.00;33.10;;;;;;;;;;5093932;28;20123;-74
2022/12/26 00:24:01;;;;;;;62.25;27.92;;;;;;;;;;5074280;28;20074;-74
2022/12/26 00:26:29;;;;;;;91.28;34.88;;;;;;;;;;5106393;27;20118;-74
2022/12/26 00:28:56;;;;;;;88.85;35.10;;;;;;;;;;5100377;28;20532;-74
2022/12/26 00:31:24;;;;;;;83.97;34.42;;;;;;;;;;5079691;28;20378;-74
2022/12/26 00:33:50;;;;;;;63.28;31.85;;;;;;;;;;5086116;28;20036;-74
2022/12/26 00:36:20;;;;;;;85.38;35.70;;;;;;;;;;5088759;28;20040;-73
2022/12/26 00:38:47;;;;;;;99.53;36.88;;;;;;;;;;5076401;28;20044;-74
2022/12/26 00:41:13;;;;;;;77.05;33.67;;;;;;;;;;5090101;28;20035;-74
2022/12/26 00:43:39;;;;;;;80.65;34.80;;;;;;;;;;5093263;28;20032;-72
2022/12/26 00:46:06;;;;;;;70.88;29.92;;;;;;;;;;5057430;28;20543;-74
2022/12/26 00:48:33;;;;;;;90.28;32.97;;;;;;;;;;5078343;28;20397;-74
2022/12/26 00:50:59;;;;;;;83.25;33.97;;;;;;;;;;5075160;28;20048;-74
2022/12/26 00:53:26;;;;;;;79.82;33.40;;;;;;;;;;5089805;28;20072;-74
2022/12/26 00:55:52;;;;;;;92.20;32.90;;;;;;;;;;5103210;27;20509;-74
2022/12/26 00:58:18;;;;;;;87.15;33.17;;;;;;;;;;5076674;28;20455;-74
2022/12/26 01:00:45;;;;;;;102.03;37.65;;;;;;;;;;5090256;28;20039;-73
2022/12/26 01:03:11;;;;;;;116.97;37.28;;;;;;;;;;5094854;28;20047;-73
2022/12/26 01:05:45;;;;;;;124.13;36.53;;;;;;;;;;5090340;28;20057;-73
2022/12/26 01:08:11;;;;;;;111.60;35.88;;;;;;;;;;5089500;28;20044;-74
2022/12/26 01:10:40;;;;;;;117.95;38.65;;;;;;;;;;5087061;28;20062;-74
2022/12/26 01:13:06;;;;;;;110.93;36.63;;;;;;;;;;5081919;28;20037;-74
2022/12/26 01:15:32;;;;;;;115.97;35.88;;;;;;;;;;5069403;28;20174;-74
2022/12/26 01:17:59;;;;;;;100.15;35.88;;;;;;;;;;5089951;28;20067;-73
2022/12/26 01:20:25;;;;;;;86.10;35.90;;;;;;;;;;5092602;28;20102;-74
2022/12/26 01:22:51;;;;;;;92.13;34.10;;;;;;;;;;5075161;28;20050;-74
2022/12/26 01:25:18;;;;;;;93.13;35.33;;;;;;;;;;5079781;28;20043;-73
2022/12/26 01:27:44;;;;;;;80.93;35.45;;;;;;;;;;5086410;28;20043;-74
2022/12/26 01:30:10;;;;;;;81.88;34.67;;;;;;;;;;5095911;28;20534;-74
2022/12/26 01:32:36;;;;;;;86.15;38.25;;;;;;;;;;5077987;28;20386;-74
2022/12/26 01:35:03;;;;;;;85.45;37.10;;;;;;;;;;5079723;28;20043;-73
2022/12/26 01:37:29;;;;;;;73.13;32.83;;;;;;;;;;5078531;28;20337;-74
2022/12/26 01:39:55;;;;;;;73.85;35.97;;;;;;;;;;5073942;28;20047;-74
2022/12/26 01:42:23;;;;;;;76.38;35.28;;;;;;;;;;5083702;28;20047;-74
2022/12/26 01:45:08;;;;;;;80.20;33.50;;;;;;;;;;5073587;28;20050;-74
2022/12/26 01:47:34;;;;;;;75.90;34.65;;;;;;;;;;5072871;28;20036;-73
2022/12/26 01:50:00;;;;;;;73.32;34.67;;;;;;;;;;5090503;28;20044;-74
2022/12/26 01:52:32;;;;;;;67.72;33.10;;;;;;;;;;5080648;28;20122;-74
2022/12/26 01:54:59;;;;;;;63.08;30.45;;;;;;;;;;5089880;28;20116;-74
2022/12/26 01:57:33;;;;;;;62.17;29.65;;;;;;;;;;5074264;28;20047;-74
2022/12/26 02:00:01;;;;;;;65.40;28.48;;;;;;;;;;5090039;28;20040;-74
2022/12/26 02:02:28;;;;;;;54.40;28.45;;;;;;;;;;5074258;28;20036;-74
2022/12/26 02:07:41;;;;;;;55.13;25.23;;;;;;;;;;5073916;28;20442;-73
2022/12/26 02:10:09;;;;;;;50.20;25.52;;;;;;;;;;5034217;28;20123;-74
2022/12/26 02:12:36;;;;;;;46.35;25.10;;;;;;;;;;5076401;28;20084;-74
2022/12/26 02:15:02;;;;;;;53.95;26.08;;;;;;;;;;5079213;28;20132;-74
2022/12/26 02:17:29;;;;;;;50.70;25.27;;;;;;;;;;5071877;28;20086;-74
2022/12/26 02:19:55;;;;;;;46.75;24.25;;;;;;;;;;5072839;28;20047;-74
2022/12/26 02:22:32;;;;;;;45.70;25.85;;;;;;;;;;5072958;28;20374;-74
2022/12/26 02:25:07;;;;;;;51.85;25.77;;;;;;;;;;5068089;28;20493;-73
2022/12/26 02:28:03;;;;;;;43.40;25.38;;;;;;;;;;5074301;28;20097;-74
2022/12/26 02:30:47;;;;;;;51.00;27.75;;;;;;;;;;5071497;28;20056;-74
2022/12/26 02:33:16;;;;;;;46.53;27.35;;;;;;;;;;5095014;28;20047;-74
2022/12/26 02:35:46;;;;;;;51.67;28.17;;;;;;;;;;5057065;28;20032;-74
2022/12/26 02:38:24;;;;;;;48.53;28.10;;;;;;;;;;5073789;28;20052;-74
2022/12/26 02:40:59;;;;;;;54.30;30.15;;;;;;;;;;5071266;28;20032;-73
2022/12/26 02:43:25;;;;;;;56.10;29.60;;;;;;;;;;5074230;28;20067;-73
2022/12/26 02:48:57;;;;;;;55.67;30.67;;;;;;;;;;5073558;28;20056;-73
2022/12/26 03:14:17;;;;;;;55.75;32.83;;;;;;;;;;5105006;27;20044;-74
2022/12/26 03:19:32;;;;;;;54.75;31.77;;;;;;;;;;5071307;28;20202;-74
2022/12/26 03:22:00;;;;;;;58.08;34.00;;;;;;;;;;5098955;28;20044;-74
2022/12/26 03:26:38;;;;;;;60.33;33.13;;;;;;;;;;5078470;28;20031;-74
2022/12/26 03:27:12;;;;;;;53.17;31.65;;;;;;;;;;5069247;28;20720;-73
2022/12/26 03:32:23;;;;;;;61.17;33.80;;;;;;;;;;5090519;28;20050;-73
2022/12/26 03:34:49;;;;;;;57.33;33.28;;;;;;;;;;5092445;28;20027;-73
2022/12/26 03:37:50;;;;;;;55.28;32.90;;;;;;;;;;5092216;28;20042;-73
2022/12/26 04:20:31;;;;;;;51.67;29.60;;;;;;;;;;5073973;28;20525;-73
2022/12/26 04:45:22;;;;;;;58.40;33.10;;;;;;;;;;5074516;28;20500;-72
2022/12/26 04:50:34;;;;;;;62.38;31.40;;;;;;;;;;5091153;28;20075;-72
2022/12/26 04:53:00;;;;;;;54.78;31.20;;;;;;;;;;5074888;28;20032;-74
2022/12/26 04:55:28;;;;;;;48.50;29.80;;;;;;;;;;5079839;28;20046;-74
2022/12/26 04:57:54;;;;;;;47.30;29.95;;;;;;;;;;5092672;28;20036;-73
2022/12/26 05:00:22;;;;;;;42.00;28.13;;;;;;;;;;5087957;28;20394;-74
2022/12/26 05:11:18;;;;;;;44.88;25.95;;;;;;;;;;5090873;28;20144;-73
2022/12/26 05:13:44;;;;;;;43.38;26.55;;;;;;;;;;5096300;28;20036;-73
2022/12/26 05:29:58;;;;;;;34.85;24.60;;;;;;;;;;5085601;28;20127;-73
2022/12/26 05:35:09;;;;;;;37.03;24.75;;;;;;;;;;5072828;28;20139;-73
2022/12/26 05:37:36;;;;;;;37.10;22.80;;;;;;;;;;5072654;28;20052;-73
2022/12/26 05:40:02;;;;;;;35.50;22.98;;;;;;;;;;5076108;28;20443;-72
2022/12/26 05:42:28;;;;;;;34.35;22.83;;;;;;;;;;5094737;28;20031;-73
2022/12/26 05:44:54;;;;;;;33.63;21.70;;;;;;;;;;5080879;28;20054;-72
2022/12/26 05:47:20;;;;;;;31.67;22.40;;;;;;;;;;5095607;28;20040;-73
2022/12/26 05:49:47;;;;;;;35.50;22.63;;;;;;;;;;5074292;28;20059;-73
2022/12/26 05:52:13;;;;;;;35.05;19.90;;;;;;;;;;5084833;28;20126;-73
2022/12/26 05:54:39;;;;;;;27.98;18.48;;;;;;;;;;5077124;28;20043;-73
2022/12/26 05:57:05;;;;;;;28.85;19.83;;;;;;;;;;5080791;28;20534;-73
2022/12/26 05:59:31;;;;;;;31.95;20.23;;;;;;;;;;5092328;28;20051;-72
2022/12/26 06:01:57;;;;;;;26.25;16.95;;;;;;;;;;5064477;28;20040;-73
2022/12/26 06:04:24;;;;;;;27.98;17.92;;;;;;;;;;5060644;28;20036;-73
2022/12/26 06:06:51;;;;;;;26.60;19.02;;;;;;;;;;5073416;28;20043;-73
2022/12/26 06:09:17;;;;;;;28.60;18.52;;;;;;;;;;5087965;28;20401;-73
2022/12/26 06:11:43;;;;;;;27.55;17.42;;;;;;;;;;5070821;28;20363;-73
2022/12/26 06:14:09;;;;;;;26.50;17.65;;;;;;;;;;5091230;28;20042;-73
2022/12/26 06:16:35;;;;;;;32.83;17.00;;;;;;;;;;5105643;27;20201;-73
2022/12/26 06:19:01;;;;;;;25.98;17.70;;;;;;;;;;5074171;28;20093;-73
2022/12/26 06:21:27;;;;;;;20.83;15.25;;;;;;;;;;5078471;28;20052;-73
2022/12/26 06:23:53;;;;;;;28.67;16.38;;;;;;;;;;5092936;28;20042;-73
2022/12/26 06:26:20;;;;;;;23.73;16.98;;;;;;;;;;5076660;28;20047;-72
2022/12/26 06:28:46;;;;;;;25.55;16.83;;;;;;;;;;5080771;28;20059;-73
2022/12/26 06:31:13;;;;;;;23.92;15.80;;;;;;;;;;5075973;28;20377;-72
2022/12/26 06:33:39;;;;;;;24.08;16.92;;;;;;;;;;5073822;28;20032;-73
2022/12/26 06:36:07;;;;;;;26.75;17.58;;;;;;;;;;5091076;28;20079;-73
2022/12/26 06:38:33;;;;;;;24.92;16.90;;;;;;;;;;5092128;28;20035;-73
2022/12/26 06:40:59;;;;;;;21.90;15.60;;;;;;;;;;5073271;28;20363;-73
2022/12/26 06:43:25;;;;;;;21.27;15.88;;;;;;;;;;5068027;28;20103;-73
2022/12/26 06:45:58;;;;;;;21.33;15.10;;;;;;;;;;5076742;28;20052;-73
2022/12/26 06:48:25;;;;;;;26.83;15.82;;;;;;;;;;5075478;28;20032;-73
2022/12/26 06:50:53;;;;;;;22.92;16.23;;;;;;;;;;5072008;28;20044;-72
2022/12/26 06:53:20;;;;;;;21.73;15.73;;;;;;;;;;5074070;28;20063;-72
2022/12/26 06:55:46;;;;;;;24.25;14.65;;;;;;;;;;5090231;28;20051;-73
2022/12/26 06:58:12;;;;;;;28.05;14.90;;;;;;;;;;5076640;28;20489;-73
2022/12/26 07:00:39;;;;;;;25.88;15.65;;;;;;;;;;5055430;28;20079;-72
2022/12/26 07:03:05;;;;;;;23.38;15.10;;;;;;;;;;5087642;28;20044;-73
2022/12/26 07:05:31;;;;;;;20.58;13.63;;;;;;;;;;5088211;28;20106;-73
2022/12/26 07:07:57;;;;;;;22.95;14.40;;;;;;;;;;5082260;28;20048;-72
2022/12/26 07:10:23;;;;;;;21.90;13.65;;;;;;;;;;5084908;28;20392;-72
2022/12/26 07:12:49;;;;;;;19.20;12.40;;;;;;;;;;5086728;28;20040;-72
2022/12/26 07:15:15;;;;;;;19.63;13.50;;;;;;;;;;5066377;28;20085;-73
2022/12/26 07:17:41;;;;;;;21.70;12.52;;;;;;;;;;5036456;28;20124;-72
2022/12/26 07:20:08;;;;;;;19.58;12.20;;;;;;;;;;5065415;28;20273;-72
2022/12/26 07:22:34;;;;;;;16.60;11.13;;;;;;;;;;5062692;28;20555;-72
2022/12/26 07:25:00;;;;;;;17.10;11.88;;;;;;;;;;5061495;28;20052;-72
2022/12/26 07:27:26;;;;;;;19.52;11.35;;;;;;;;;;5064293;28;20528;-72
2022/12/26 07:29:52;;;;;;;15.52;10.05;;;;;;;;;;5058472;28;20494;-73
2022/12/26 07:32:19;;;;;;;12.68;9.50;;;;;;;;;;5061275;28;20040;-72
2022/12/26 07:34:45;;;;;;;18.40;10.05;;;;;;;;;;5059764;28;20051;-72
2022/12/26 07:37:11;;;;;;;16.52;10.02;;;;;;;;;;5059156;28;20038;-72
2022/12/26 07:39:37;;;;;;;13.50;8.32;;;;;;;;;;5063332;28;20044;-72
2022/12/26 07:42:06;;;;;;;14.65;8.32;;;;;;;;;;5061551;28;20067;-73
2022/12/26 07:44:33;;;;;;;15.20;8.07;;;;;;;;;;5068672;28;20157;-73
2022/12/26 07:47:00;;;;;;;11.80;8.98;;;;;;;;;;5063945;28;20044;-70
2022/12/26 07:49:26;;;;;;;15.65;8.93;;;;;;;;;;5069421;28;20044;-72
2022/12/26 07:51:52;;;;;;;12.05;7.95;;;;;;;;;;5061430;28;20127;-72
2022/12/26 07:54:18;;;;;;;13.15;8.43;;;;;;;;;;5094352;27;20033;-72
2022/12/26 07:56:45;;;;;;;15.60;7.88;;;;;;;;;;5067812;28;20052;-72
2022/12/26 07:59:15;;;;;;;13.05;8.35;;;;;;;;;;5064176;28;20120;-73
2022/12/26 08:01:41;;;;;;;14.80;7.82;;;;;;;;;;5063310;28;20101;-72
2022/12/26 08:04:07;;;;;;;12.35;8.98;;;;;;;;;;5064667;28;20097;-73
2022/12/26 08:06:33;;;;;;;14.02;7.10;;;;;;;;;;5062792;28;20043;-72
2022/12/26 08:09:00;;;;;;;10.10;7.43;;;;;;;;;;5067787;28;20386;-73
2022/12/26 08:11:26;;;;;;;15.18;7.97;;;;;;;;;;5093106;28;20076;-72
2022/12/26 08:13:52;;;;;;;13.00;7.88;;;;;;;;;;5062382;28;20129;-73
2022/12/26 08:16:19;;;;;;;9.18;6.40;;;;;;;;;;5077958;28;20079;-73
2022/12/26 08:18:47;;;;;;;14.27;8.25;;;;;;;;;;5068369;28;20415;-73
2022/12/26 08:21:13;;;;;;;13.55;7.00;;;;;;;;;;5069248;28;20093;-74
2022/12/26 08:23:39;;;;;;;12.02;7.40;;;;;;;;;;5091730;28;20109;-72
2022/12/26 08:26:06;;;;;;;11.50;7.15;;;;;;;;;;5071550;28;20135;-73
2022/12/26 08:28:33;;;;;;;11.63;7.15;;;;;;;;;;5075689;28;20047;-73
2022/12/26 08:30:59;;;;;;;19.83;7.78;;;;;;;;;;5087299;28;20035;-73
2022/12/26 08:33:25;;;;;;;12.15;7.65;;;;;;;;;;5074643;28;20048;-73
2022/12/26 08:35:52;;;;;;;13.27;7.00;;;;;;;;;;5077337;28;20071;-73
2022/12/26 08:38:18;;;;;;;13.23;7.60;;;;;;;;;;5060990;28;20039;-74
2022/12/26 08:40:44;;;;;;;15.20;9.65;;;;;;;;;;5089847;28;20090;-72
2022/12/26 08:43:10;;;;;;;25.00;9.52;;;;;;;;;;5091064;28;20039;-73
2022/12/26 08:45:36;;;;;;;8.48;6.70;;;;;;;;;;5068961;28;20044;-73
2022/12/26 08:48:03;;;;;;;13.23;8.18;;;;;;;;;;5093861;28;20032;-72
2022/12/26 08:50:29;;;;;;;14.23;8.48;;;;;;;;;;5077788;28;20534;-74
2022/12/26 08:52:55;;;;;;;12.77;7.65;;;;;;;;;;5073072;28;20369;-73
2022/12/26 08:55:21;;;;;;;10.65;7.88;;;;;;;;;;5075273;28;20032;-73
2022/12/26 08:57:47;;;;;;;21.63;8.98;;;;;;;;;;5078472;28;20119;-73
2022/12/26 09:00:14;;;;;;;10.82;7.90;;;;;;;;;;5097792;28;20428;-73
2022/12/26 09:02:40;;;;;;;13.02;7.38;;;;;;;;;;5072662;28;20109;-73
2022/12/26 09:05:06;;;;;;;15.70;7.93;;;;;;;;;;5065437;28;20048;-73
2022/12/26 09:07:33;;;;;;;11.45;7.30;;;;;;;;;;5091552;28;20085;-73
2022/12/26 09:09:59;;;;;;;15.18;8.05;;;;;;;;;;5075266;28;20450;-73
2022/12/26 09:12:25;;;;;;;13.27;6.95;;;;;;;;;;5069470;28;20146;-73
2022/12/26 09:14:52;;;;;;;10.48;6.75;;;;;;;;;;5059739;28;20417;-73
2022/12/26 09:17:18;;;;;;;20.27;7.20;;;;;;;;;;5103095;27;20055;-73
2022/12/26 09:19:44;;;;;;;20.27;5.18;;;;;;;;;;5085771;28;20062;-73
2022/12/26 09:24:55;;;;;;;22.00;5.75;;;;;;;;;;5074689;28;20048;-73
2022/12/26 09:27:21;;;;;;;16.33;4.63;;;;;;;;;;5088995;28;20032;-73
2022/12/26 09:29:47;;;;;;;17.10;4.20;;;;;;;;;;5064197;28;20048;-72
2022/12/26 09:32:13;;;;;;;13.48;4.97;;;;;;;;;;5083056;28;20067;-74
2022/12/26 09:34:39;;;;;;;14.40;4.47;;;;;;;;;;5070066;28;20040;-73
2022/12/26 09:37:05;;;;;;;22.20;3.95;;;;;;;;;;5070307;28;20050;-73
2022/12/26 09:39:32;;;;;;;10.73;4.18;;;;;;;;;;5084631;28;20037;-73
2022/12/26 09:42:06;;;;;;;17.70;7.05;;;;;;;;;;5084486;28;20085;-73
2022/12/26 09:44:35;;;;;;;13.93;5.63;;;;;;;;;;5069510;28;20055;-73
2022/12/26 09:47:07;;;;;;;12.98;5.80;;;;;;;;;;5091193;28;20405;-72
2022/12/26 09:49:41;;;;;;;11.55;3.53;;;;;;;;;;5090629;28;20036;-72
2022/12/26 09:52:26;;;;;;;6.90;3.22;;;;;;;;;;5087848;28;20032;-73
2022/12/26 09:54:54;;;;;;;13.45;4.32;;;;;;;;;;5055506;28;20376;-72
2022/12/26 09:57:26;;;;;;;13.32;3.75;;;;;;;;;;5088946;28;20036;-72
2022/12/26 09:59:55;;;;;;;9.35;3.25;;;;;;;;;;5063735;28;20047;-72
2022/12/26 10:02:22;;;;;;;7.75;2.83;;;;;;;;;;5074912;28;20044;-73
2022/12/26 10:04:48;;;;;;;8.75;3.72;;;;;;;;;;5075588;28;20040;-72
2022/12/26 10:07:21;;;;;;;13.82;4.53;;;;;;;;;;5073964;28;20044;-72
2022/12/26 10:09:47;;;;;;;16.70;4.32;;;;;;;;;;5108165;27;20036;-73
2022/12/26 10:12:17;;;;;;;10.98;3.78;;;;;;;;;;5071632;28;20545;-73
2022/12/26 10:14:52;;;;;;;19.55;3.90;;;;;;;;;;5091129;28;20036;-73
2022/12/26 10:17:22;;;;;;;15.07;3.80;;;;;;;;;;5083074;28;20076;-73
2022/12/26 10:20:06;;;;;;;14.15;4.00;;;;;;;;;;5072308;28;20405;-73
2022/12/26 10:22:54;;;;;;;9.07;3.33;;;;;;;;;;5084810;28;20141;-72
2022/12/26 10:25:32;;;;;;;8.77;2.60;;;8.10;99.90;;;;;;5095769;27;20040;-74
2022/12/26 10:27:59;;;;;;;11.00;2.75;;;7.40;99.90;;;;;;5102676;27;20088;-73
2022/12/26 10:30:36;;;;;;;8.75;2.67;;;7.30;99.90;;;;;;5070847;28;20106;-74
2022/12/26 10:33:17;;;;;;;14.85;4.15;;;7.30;99.90;;;;;;5088654;28;20040;-73
2022/12/26 10:35:44;;;;;;;17.63;3.97;;;7.30;99.90;;;;;;5076455;28;20035;-74
2022/12/26 10:38:27;;;;;;;14.27;3.10;;;7.20;99.90;;;;;;5051551;28;20051;-73
2022/12/26 10:40:58;;;;;;;7.35;2.78;;;7.20;99.90;;;;;;5087906;28;20036;-72
2022/12/26 10:43:27;;;;;;;10.57;3.00;;;7.20;99.90;;;;;;5094131;28;20078;-74
2022/12/26 10:46:00;;;;;;;11.10;2.55;;;;;;;;;;5074200;28;20124;-73
2022/12/26 10:48:27;;;;;;;5.97;2.40;;;7.20;99.90;;;;;;5062700;28;20406;-73
2022/12/26 10:50:54;;;;;;;9.50;2.10;;;7.10;99.90;;;;;;5060424;28;20681;-74
2022/12/26 10:53:20;;;;;;;13.15;3.05;;;7.10;99.90;;;;;;5083648;28;20056;-73
2022/12/26 10:55:46;;;;;;;7.07;2.50;;;7.10;99.90;;;;;;5085877;28;20048;-73
2022/12/26 10:58:27;;;;;;;6.45;3.13;;;7.10;99.90;;;;;;5085925;28;20502;-73
2022/12/26 11:00:53;;;;;;;7.00;2.70;;;7.10;99.90;;;;;;5091846;28;20067;-74
2022/12/26 11:03:20;;;;;;;8.63;2.20;;;7.10;99.90;;;;;;5096049;28;20067;-73
2022/12/26 11:05:55;;;;;;;7.28;2.47;;;7.10;99.90;;;;;;5072545;28;20189;-73
2022/12/26 11:08:27;;;;;;;5.28;2.03;;;7.10;99.90;;;;;;5103611;28;20036;-73
2022/12/26 11:11:12;;;;;;;11.75;2.53;;;7.10;99.90;;;;;;5086076;28;20391;-73
2022/12/26 11:14:20;;;;;;;5.72;2.33;;;7.10;99.90;;;;;;5087993;28;20040;-73
2022/12/26 11:16:48;;;;;;;11.23;2.80;;;7.00;99.90;;;;;;5060753;28;20048;-73
2022/12/26 11:19:32;;;;;;;9.18;2.55;;;7.00;99.90;;;;;;5078168;28;20086;-73
2022/12/26 11:22:20;;;;;;;6.40;2.53;;;7.00;99.90;;;;;;5113889;27;20054;-73
2022/12/26 11:25:10;;;;;;;12.63;2.97;;;7.00;99.90;;;;;;5084251;28;20120;-73
2022/12/26 11:27:44;;;;;;;10.82;2.55;;;7.00;99.90;;;;;;5107212;27;20050;-73
2022/12/26 11:30:13;;;;;;;8.35;2.80;;;7.00;99.90;;;;;;5092616;28;20040;-73
2022/12/26 11:32:40;;;;;;;7.70;3.20;;;7.00;99.90;;;;;;5067730;28;20125;-72
2022/12/26 11:35:14;;;;;;;6.40;2.95;;;7.00;99.90;;;;;;5039899;28;20052;-74
2022/12/26 11:37:43;;;;;;;7.15;3.10;;;7.00;99.90;;;;;;5091869;28;20042;-74
2022/12/26 11:40:17;;;;;;;11.25;3.05;;;7.10;99.90;;;;;;5086735;28;20119;-73
2022/12/26 11:42:50;;;;;;;7.30;3.03;;;7.10;99.90;;;;;;5087084;28;20028;-73
2022/12/26 11:45:22;;;;;;;9.18;3.40;;;7.10;99.90;;;;;;5069818;28;20047;-74
2022/12/26 11:47:49;;;;;;;10.60;4.07;;;7.40;99.90;;;;;;5091617;28;20082;-74
2022/12/26 11:50:24;;;;;;;6.45;3.42;;;7.40;99.90;;;;;;5076042;28;20329;-73
2022/12/26 11:53:03;;;;;;;16.45;4.55;;;7.40;99.90;;;;;;5070351;28;20132;-74
2022/12/26 11:55:29;;;;;;;13.38;7.05;;;7.40;99.90;;;;;;5084143;28;20097;-73
2022/12/26 11:58:04;;;;;;;11.07;3.60;;;7.50;99.90;;;;;;5073240;28;20131;-73
2022/12/26 12:00:31;;;;;;;13.48;4.57;;;;;;;;;;5087820;28;20028;-73
2022/12/26 12:02:58;;;;;;;18.15;6.57;;;;;;;;;;5062828;28;20054;-74
2022/12/26 12:05:43;;;;;;;15.57;4.85;;;;;;;;;;5082974;28;20040;-71
2022/12/26 12:08:15;;;;;;;14.00;3.50;;;;;;;;;;5081858;28;20044;-74
2022/12/26 12:11:05;;;;;;;12.52;3.75;;;;;;;;;;5080515;28;20445;-73
2022/12/26 12:13:31;;;;;;;14.75;7.18;;;;;;;;;;5087358;28;20032;-74
2022/12/26 12:16:05;;;;;;;13.07;4.50;;;;;;;;;;5086234;28;20115;-73
2022/12/26 12:18:53;;;;;;;9.90;3.00;;;7.90;99.90;;;;;;5066590;28;20551;-73
2022/12/26 12:21:27;;;;;;;10.95;2.95;;;;;;;;;;5084230;28;20435;-73
2022/12/26 12:23:59;;;;;;;15.50;5.13;;;;;;;;;;5069480;28;20052;-73
2022/12/26 12:26:44;;;;;;;13.95;6.05;;;;;;;;;;5090297;28;20086;-73
2022/12/26 12:29:16;;;;;;;13.18;4.40;;;;;;;;;;5095499;28;20040;-73
2022/12/26 12:31:42;;;;;;;13.30;4.50;;;;;;;;;;5081921;28;20123;-74
2022/12/26 12:34:08;;;;;;;23.55;8.98;;;;;;;;;;5075044;28;20040;-74
2022/12/26 12:36:46;;;;;;;13.77;5.55;;;;;;;;;;5075020;28;20043;-74
2022/12/26 12:39:32;;;;;;;8.25;3.13;;;;;;;;;;5079209;28;20044;-74
2022/12/26 12:42:05;;;;;;;15.73;3.63;;;;;;;;;;5082709;28;20051;-74
2022/12/26 12:44:49;;;;;;;10.10;3.65;;;8.50;99.90;;;;;;5073382;28;20047;-74
2022/12/26 12:47:24;;;;;;;15.48;4.50;;;;;;;;;;5072534;28;20051;-74
2022/12/26 12:49:50;;;;;;;9.35;3.17;;;;;;;;;;5069902;28;20126;-74
2022/12/26 12:52:16;;;;;;;12.52;2.92;;;;;;;;;;5073049;28;20127;-74
2022/12/26 12:54:56;;;;;;;14.45;2.92;;;;;;;;;;5078413;28;20473;-74
2022/12/26 12:57:25;;;;;;;12.43;3.08;;;;;;;;;;5053674;28;20040;-74
2022/12/26 13:00:14;;;;;;;13.57;3.47;;;;;;;;;;5084863;28;20166;-73
2022/12/26 13:02:50;;;;;;;15.10;8.10;;;;;;;;;;5080682;28;20056;-73
2022/12/26 13:05:16;;;;;;;14.68;3.83;;;;;;;;;;5081268;28;20056;-74
2022/12/26 13:07:45;;;;;;;15.50;6.50;;;;;;;;;;5104763;27;20115;-74
2022/12/26 13:10:27;;;;;;;14.68;7.43;;;10.10;99.90;;;;;;5075680;28;20055;-73
2022/12/26 13:12:54;;;;;;;11.60;5.78;;;9.70;99.90;;;;;;5073408;28;20097;-73
2022/12/26 13:15:29;;;;;;;11.68;4.30;;;;;;;;;;5072898;28;20032;-74
2022/12/26 13:18:01;;;;;;;12.35;3.25;;;;;;;;;;5097056;28;20048;-73
2022/12/26 13:20:39;;;;;;;18.57;3.77;;;;;;;;;;5084988;28;20155;-73
2022/12/26 13:26:03;;;;;;;8.00;3.63;;;;;;;;;;5076543;28;20043;-73
2022/12/26 13:28:33;;;;;;;7.70;4.20;;;;;;;;;;5075103;28;20047;-73
2022/12/26 13:30:59;;;;;;;12.48;3.60;;;;;;;;;;5093852;27;20032;-73
2022/12/26 13:33:26;;;;;;;11.38;3.05;;;;;;;;;;5090536;28;20036;-73
2022/12/26 13:35:54;;;;;;;7.53;3.63;;;;;;;;;;5092517;28;20118;-73
2022/12/26 13:38:21;;;;;;;10.85;4.07;;;;;;;;;;5074801;28;20063;-72
2022/12/26 13:43:53;;;;;;;13.13;3.95;;;;;;;;;;5071195;28;20588;-73
2022/12/26 13:44:06;;;;;;;11.25;4.28;;;9.40;99.90;;;;;;5074305;28;20052;-74
2022/12/26 13:46:34;;;;;;;18.73;4.78;;;;;;;;;;5073538;28;20036;-74
2022/12/26 13:49:01;;;;;;;17.27;5.05;;;;;;;;;;5083616;28;20036;-73
2022/12/26 13:51:45;;;;;;;13.80;4.35;;;;;;;;;;5077220;28;20119;-73
2022/12/26 13:54:13;;;;;;;22.73;11.38;;;;;;;;;;5085046;28;20107;-73
2022/12/26 13:56:42;;;;;;;20.35;6.82;;;;;;;;;;5073906;28;20028;-73
2022/12/26 13:59:46;;;;;;;25.85;12.77;;;;;;;;;;5090503;28;20093;-73
2022/12/26 14:02:31;;;;;;;20.83;9.55;;;;;;;;;;4981690;28;20038;-73
2022/12/26 14:05:06;;;;;;;17.35;7.93;;;;;;;;;;4994933;28;20086;-73
2022/12/26 14:07:53;;;;;;;8.35;3.72;;;;;;;;;;5045170;28;20521;-73
2022/12/26 14:10:39;;;;;;;14.52;4.93;;;;;;;;;;5083107;28;20050;-73
2022/12/26 14:13:11;;;;;;;11.15;5.20;;;;;;;;;;5088015;28;20036;-73
2022/12/26 14:15:40;;;;;;;11.75;4.05;;;;;;;;;;5074772;28;20040;-73
2022/12/26 14:18:06;;;;;;;9.60;3.70;;;;;;;;;;5063459;28;20120;-72
2022/12/26 14:20:35;;;;;;;11.30;3.22;;;;;;;;;;5082673;28;20462;-72
2022/12/26 14:23:01;;;;;;;9.50;3.22;;;;;;;;;;5062143;28;20466;-72
2022/12/26 14:25:46;;;;;;;11.25;4.00;;;;;;;;;;5042738;28;20063;-73
2022/12/26 14:28:22;;;;;;;10.55;3.67;;;;;;;;;;5080494;28;20512;-72
2022/12/26 14:31:06;;;;;;;15.63;3.38;;;;;;;;;;5092812;28;20047;-72
2022/12/26 14:33:52;;;;;;;8.73;4.43;;;;;;;;;;5095094;28;20061;-72
2022/12/26 14:36:33;;;;;;;13.65;4.25;;;;;;;;;;5091196;28;20035;-72
2022/12/26 14:39:18;;;;;;;14.52;4.22;;;;;;;;;;5064693;28;20040;-72
2022/12/26 14:44:49;;;;;;;8.77;3.08;;;;;;;;;;5084052;28;20055;-72
2022/12/26 14:47:34;;;;;;;13.00;3.30;;;;;;;;;;5088255;28;20428;-72
2022/12/26 14:50:20;;;;;;;9.63;3.28;;;;;;;;;;5080861;28;20044;-72
2022/12/26 14:52:47;;;;;;;13.43;3.33;;;;;;;;;;5065869;28;20131;-72
2022/12/26 14:55:32;;;;;;;12.18;3.00;;;;;;;;;;5097392;28;20108;-72
2022/12/26 14:58:18;;;;;;;10.20;3.83;;;;;;;;;;5080307;28;20039;-72
2022/12/26 15:00:45;;;;;;;15.70;3.60;;;;;;;;;;5073576;28;20156;-72
2022/12/26 15:03:29;;;;;;;12.98;2.78;;;;;;;;;;5088184;28;20040;-72
2022/12/26 15:06:04;;;;;;;13.13;3.55;;;;;;;;;;5096328;28;20040;-72
2022/12/26 15:08:45;;;;;;;8.23;3.20;;;;;;;;;;5080897;28;20036;-72
2022/12/26 15:11:14;;;;;;;8.02;2.88;;;;;;;;;;5099300;28;20028;-72
2022/12/26 15:13:59;;;;;;;10.15;3.97;;;;;;;;;;5105148;28;20409;-72
2022/12/26 15:16:28;;;;;;;6.95;2.67;;;;;;;;;;5072195;28;20102;-71
2022/12/26 15:18:57;;;;;;;14.05;3.42;;;;;;;;;;5093535;28;20514;-72
2022/12/26 15:21:23;;;;;;;8.25;3.17;;;;;;;;;;5093266;28;20031;-72
2022/12/26 15:24:06;;;;;;;8.80;3.05;;;;;;;;;;5093799;28;20035;-72
2022/12/26 15:26:35;;;;;;;11.68;3.80;;;;;;;;;;5076931;28;20524;-72
2022/12/26 15:29:01;;;;;;;16.45;3.72;;;;;;;;;;5087215;28;20379;-72
2022/12/26 15:31:45;;;;;;;8.60;3.53;;;;;;;;;;5102157;28;20165;-72
2022/12/26 15:34:14;;;;;;;7.60;2.50;;;;;;;;;;5083255;28;20043;-71
2022/12/26 15:36:49;;;;;;;10.10;3.50;;;;;;;;;;5097429;28;20090;-72
2022/12/26 15:39:29;;;;;;;11.00;3.83;;;;;;;;;;5105314;28;20036;-70
2022/12/26 15:42:01;;;;;;;13.32;3.22;;;;;;;;;;5086408;28;20044;-71
2022/12/26 15:44:39;;;;;;;10.13;2.97;;;;;;;;;;5102924;28;20518;-73
2022/12/26 15:47:20;;;;;;;15.23;2.90;;;;;;;;;;5092704;28;20401;-72
2022/12/26 15:49:47;;;;;;;6.05;2.80;;;;;;;;;;5075205;28;20119;-72
2022/12/26 15:52:22;;;;;;;16.13;3.53;;;;;;;;;;5095397;28;20044;-72
2022/12/26 15:55:07;;;;;;;11.32;2.90;;;;;;;;;;5106945;28;20039;-73
2022/12/26 15:57:39;;;;;;;18.27;3.92;;;;;;;;;;5101928;28;20043;-71
2022/12/26 16:00:05;;;;;;;19.30;3.20;;;;;;;;;;5093323;28;20150;-71
2022/12/26 16:02:34;;;;;;;14.23;3.80;;;;;;;;;;5078858;28;20115;-72
2022/12/26 16:05:20;;;;;;;8.00;2.88;;;;;;;;;;5099888;28;20428;-72
2022/12/26 16:08:05;;;;;;;7.97;3.63;;;;;;;;;;5098610;27;20147;-72
2022/12/26 16:10:33;;;;;;;7.57;2.70;;;;;;;;;;5092898;28;20459;-71
2022/12/26 16:13:16;;;;;;;5.30;2.55;;;;;;;;;;5097665;28;20390;-71
2022/12/26 16:15:55;;;;;;;17.00;3.25;;;;;;;;;;5069365;28;20048;-71
2022/12/26 16:18:25;;;;;;;10.55;3.80;;;;;;;;;;5098460;28;20045;-72
2022/12/26 16:23:38;;;;;;;15.02;3.35;;;;;;;;;;5095381;28;20454;-72
2022/12/26 16:26:05;;;;;;;11.48;3.08;;;;;;;;;;5093995;28;20118;-71
2022/12/26 16:28:31;;;;;;;6.80;2.60;;;;;;;;;;5078553;28;20572;-71
2022/12/26 16:30:57;;;;;;;10.60;3.20;;;;;;;;;;5100795;28;20044;-71
2022/12/26 16:33:24;;;;;;;13.00;3.35;;;;;;;;;;5077104;28;20035;-71
2022/12/26 16:35:50;;;;;;;13.38;3.15;;;;;;;;;;5092771;28;20331;-71
2022/12/26 16:38:20;;;;;;;7.85;3.50;;;;;;;;;;5077222;28;20068;-71
2022/12/26 16:40:49;;;;;;;9.27;3.08;;;;;;;;;;5080958;28;20036;-71
2022/12/26 16:43:18;;;;;;;8.13;3.47;;;;;;;;;;5097258;28;20096;-71
2022/12/26 16:45:46;;;;;;;9.45;2.53;;;;;;;;;;5068267;28;20443;-71
2022/12/26 16:48:14;;;;;;;10.10;3.13;;;;;;;;;;5091546;28;20032;-72
2022/12/26 16:50:49;;;;;;;9.02;2.78;;;;;;;;;;5078578;28;20506;-71